SLCBSLOR

Guest
Details From SLCB - JORGE WILSTERMAN
To SLOR - JUAN MENDOZA
Flight Number -
Tags generated
Created
Modified
Stats Distance 61 nm / 113 km
Max Altitude 18,000 ft / 5,486 m
Waypoints 4
Social Downloads 1
Likes 0
Share VATSIM

Download

Looking for another format? Having issues loading an existing format? Contact us
Advertisement - Login to hide

Notes

Basic altitude profile: - Ascent Rate: 2500ft/min - Ascent Speed: 250kts - Cruise Altitude: 35000ft - Cruise Speed: 420kts - Descent Rate: 1500ft/min - Descent Speed: 250kts Options: - Use NATs: yes - Use PACOTS: yes - Use low airways: yes - Use high airways: yes

Route

SLCB CBA W13 PAROT SLOR

ID Type Via Altitude Latitude Longitude Leg Dist Tot Dist Heading (true) Name
O SLCB APT - 0 ft / 0 m -17.42039˚ -66.17717˚ - 0 nm - JORGE WILSTERMAN
CBA VOR - 0 ft / 0 m -17.42126˚ -66.17904˚ 0 nm 0 nm 244° / 244° COCHABAMBA VOR-DME
PAROT FIX W13 (AWY-LO) 18,000 ft / 5,486 m -17.61074˚ -66.47044˚ 20 nm 20 nm 236° / 236° -
O SLOR APT - 0 ft / 0 m -17.96297˚ -67.07486˚ 40 nm 60 nm 238° / 239° JUAN MENDOZA

Altitude Profile

Advertisement - Login to hide

SLCB

Details ICAO SLCB (CBB)
Name JORGE WILSTERMAN
Region Bolivia
Timezone America/La_Paz (UTC-4.0)
Stats Elevation 8,360 ft / 2,548 m (AMSL)
Location -17.420390° -66.177166°
Runways 2
Magnetic Variation 9.392° W

METAR

SLCB 111100Z 00000KT 5000 BR FU FEW027 SCT080 BKN200 12/11 Q1027

Decode

TAF

TAF SLCB 102300Z 1100/1124 23005KT 9999 FEW027 SCT070 TX25/1119Z TN13/1110Z PROB30 TEMPO 1103/1105 8000 SHRA SCT027 FEW030CB BKN070 BECMG 1111/1113 00000KT FEW025 BKN070 BECMG 1115/1117 23005KT SCT027 FEW033CB

Decode

Departure Runways

ID Width Length Bearing (true) Bearing (mag) Surface Threshold Offset Overrun Length
04 148 ft / 45 m 8,716 ft / 2,657 m 37.26° 46.65° Asphalt 0 ft / 0 m 0 ft / 0 m
14 148 ft / 45 m 12,480 ft / 3,804 m 132.10° 141.49° Asphalt 328 ft / 100 m 199 ft / 61 m
22 148 ft / 45 m 8,716 ft / 2,657 m 217.25° 226.64° Asphalt 732 ft / 223 m 0 ft / 0 m
32 148 ft / 45 m 12,480 ft / 3,804 m 312.09° 321.48° Asphalt 984 ft / 300 m 201 ft / 61 m

SLOR

Details ICAO SLOR
Name JUAN MENDOZA
Region Bolivia
Timezone America/La_Paz (UTC-4.0)
Stats Elevation 12,146 ft / 3,702 m (AMSL)
Location -17.962969° -67.074859°
Runways 2
Magnetic Variation 8.459° W

METAR

SLOR 111100Z 20004KT 9999 NSC 08/03 Q1034

Decode

TAF

Not found

Destination Runways

ID Width Length Bearing (true) Bearing (mag) Surface Threshold Offset Overrun Length
09 120 ft / 37 m 6,115 ft / 1,864 m 93.25° 101.71° Dirt 0 ft / 0 m 0 ft / 0 m
18 75 ft / 23 m 8,115 ft / 2,473 m 182.32° 190.78° Asphalt 0 ft / 0 m 200 ft / 61 m
27 120 ft / 37 m 6,115 ft / 1,864 m 273.25° 281.71° Dirt 0 ft / 0 m 0 ft / 0 m
36 75 ft / 23 m 8,115 ft / 2,473 m 2.32° 10.78° Asphalt 0 ft / 0 m 170 ft / 52 m